sensor_id;sensor_type;location;lat;lon;timestamp;P1;durP1;ratioP1;P2;durP2;ratioP2
13568;SDS011;6856;51.460;7.158;2024-02-26T00:01:34;2.23;;;1.20;;
13568;SDS011;6856;51.460;7.158;2024-02-26T00:04:08;1.13;;;1.03;;
13568;SDS011;6856;51.460;7.158;2024-02-26T00:06:45;2.60;;;1.20;;
13568;SDS011;6856;51.460;7.158;2024-02-26T00:09:20;1.20;;;1.03;;
13568;SDS011;6856;51.460;7.158;2024-02-26T00:11:54;1.53;;;1.10;;
13568;SDS011;6856;51.460;7.158;2024-02-26T00:14:27;1.93;;;1.20;;
13568;SDS011;6856;51.460;7.158;2024-02-26T00:17:01;1.37;;;1.00;;
13568;SDS011;6856;51.460;7.158;2024-02-26T00:19:36;1.63;;;1.10;;
13568;SDS011;6856;51.460;7.158;2024-02-26T00:22:11;1.90;;;1.20;;
13568;SDS011;6856;51.460;7.158;2024-02-26T00:24:45;1.57;;;1.10;;
13568;SDS011;6856;51.460;7.158;2024-02-26T00:27:18;1.87;;;1.13;;
13568;SDS011;6856;51.460;7.158;2024-02-26T00:29:53;1.43;;;1.10;;
13568;SDS011;6856;51.460;7.158;2024-02-26T00:32:27;1.83;;;1.10;;
13568;SDS011;6856;51.460;7.158;2024-02-26T00:35:01;1.30;;;1.03;;
13568;SDS011;6856;51.460;7.158;2024-02-26T00:37:37;1.50;;;1.30;;
13568;SDS011;6856;51.460;7.158;2024-02-26T00:40:12;4.07;;;1.47;;
13568;SDS011;6856;51.460;7.158;2024-02-26T00:42:47;1.60;;;1.30;;
13568;SDS011;6856;51.460;7.158;2024-02-26T00:45:21;1.20;;;1.10;;
13568;SDS011;6856;51.460;7.158;2024-02-26T00:47:55;1.53;;;1.30;;
13568;SDS011;6856;51.460;7.158;2024-02-26T00:50:31;2.03;;;1.10;;
13568;SDS011;6856;51.460;7.158;2024-02-26T00:53:07;2.30;;;1.40;;
13568;SDS011;6856;51.460;7.158;2024-02-26T00:55:40;2.17;;;1.50;;
13568;SDS011;6856;51.460;7.158;2024-02-26T00:58:15;1.30;;;1.20;;
13568;SDS011;6856;51.460;7.158;2024-02-26T01:00:52;1.43;;;1.07;;
13568;SDS011;6856;51.460;7.158;2024-02-26T01:03:26;1.17;;;1.07;;
13568;SDS011;6856;51.460;7.158;2024-02-26T01:06:01;1.63;;;1.23;;
13568;SDS011;6856;51.460;7.158;2024-02-26T01:08:36;1.80;;;1.20;;
13568;SDS011;6856;51.460;7.158;2024-02-26T01:11:10;1.93;;;1.30;;
13568;SDS011;6856;51.460;7.158;2024-02-26T01:13:45;2.20;;;1.27;;
13568;SDS011;6856;51.460;7.158;2024-02-26T01:16:19;2.40;;;1.27;;
13568;SDS011;6856;51.460;7.158;2024-02-26T01:18:55;2.90;;;1.50;;
13568;SDS011;6856;51.460;7.158;2024-02-26T01:21:30;1.20;;;1.10;;
13568;SDS011;6856;51.460;7.158;2024-02-26T01:24:05;1.57;;;1.23;;
13568;SDS011;6856;51.460;7.158;2024-02-26T01:26:41;1.63;;;1.30;;
13568;SDS011;6856;51.460;7.158;2024-02-26T01:29:15;1.67;;;1.40;;
13568;SDS011;6856;51.460;7.158;2024-02-26T01:31:49;2.60;;;1.50;;
13568;SDS011;6856;51.460;7.158;2024-02-26T01:34:24;1.93;;;1.20;;
13568;SDS011;6856;51.460;7.158;2024-02-26T01:36:58;1.23;;;1.10;;
13568;SDS011;6856;51.460;7.158;2024-02-26T01:39:36;1.30;;;1.20;;
13568;SDS011;6856;51.460;7.158;2024-02-26T01:42:11;1.13;;;1.03;;
13568;SDS011;6856;51.460;7.158;2024-02-26T01:44:45;1.67;;;1.20;;
13568;SDS011;6856;51.460;7.158;2024-02-26T01:47:19;1.10;;;1.00;;
13568;SDS011;6856;51.460;7.158;2024-02-26T01:49:53;1.97;;;1.30;;
13568;SDS011;6856;51.460;7.158;2024-02-26T01:52:27;1.70;;;1.40;;
13568;SDS011;6856;51.460;7.158;2024-02-26T01:55:02;1.73;;;1.30;;
13568;SDS011;6856;51.460;7.158;2024-02-26T01:57:38;1.97;;;1.50;;
13568;SDS011;6856;51.460;7.158;2024-02-26T02:00:15;2.40;;;1.60;;
13568;SDS011;6856;51.460;7.158;2024-02-26T02:02:54;2.20;;;1.50;;
13568;SDS011;6856;51.460;7.158;2024-02-26T02:05:28;1.27;;;1.17;;
13568;SDS011;6856;51.460;7.158;2024-02-26T02:08:03;1.50;;;1.40;;
13568;SDS011;6856;51.460;7.158;2024-02-26T02:10:39;1.40;;;1.30;;
13568;SDS011;6856;51.460;7.158;2024-02-26T02:13:15;1.87;;;1.47;;
13568;SDS011;6856;51.460;7.158;2024-02-26T02:15:50;1.70;;;1.33;;
13568;SDS011;6856;51.460;7.158;2024-02-26T02:18:24;1.33;;;1.23;;
13568;SDS011;6856;51.460;7.158;2024-02-26T02:21:01;2.57;;;1.60;;
13568;SDS011;6856;51.460;7.158;2024-02-26T02:23:35;1.53;;;1.33;;
13568;SDS011;6856;51.460;7.158;2024-02-26T02:26:09;2.33;;;1.43;;
13568;SDS011;6856;51.460;7.158;2024-02-26T02:28:43;1.93;;;1.40;;
13568;SDS011;6856;51.460;7.158;2024-02-26T02:31:19;1.90;;;1.30;;
13568;SDS011;6856;51.460;7.158;2024-02-26T02:33:54;1.53;;;1.30;;
13568;SDS011;6856;51.460;7.158;2024-02-26T02:36:31;1.73;;;1.10;;
13568;SDS011;6856;51.460;7.158;2024-02-26T02:39:07;2.37;;;1.30;;
13568;SDS011;6856;51.460;7.158;2024-02-26T02:41:40;2.03;;;1.30;;
13568;SDS011;6856;51.460;7.158;2024-02-26T02:44:15;1.70;;;1.40;;
13568;SDS011;6856;51.460;7.158;2024-02-26T02:46:48;1.33;;;1.23;;
13568;SDS011;6856;51.460;7.158;2024-02-26T02:49:24;3.47;;;1.53;;
13568;SDS011;6856;51.460;7.158;2024-02-26T02:52:00;1.57;;;1.37;;
13568;SDS011;6856;51.460;7.158;2024-02-26T02:54:34;1.67;;;1.33;;
13568;SDS011;6856;51.460;7.158;2024-02-26T02:57:08;1.67;;;1.30;;
13568;SDS011;6856;51.460;7.158;2024-02-26T02:59:43;1.17;;;1.00;;
13568;SDS011;6856;51.460;7.158;2024-02-26T03:02:18;1.37;;;1.27;;
13568;SDS011;6856;51.460;7.158;2024-02-26T03:04:52;1.20;;;1.10;;
13568;SDS011;6856;51.460;7.158;2024-02-26T03:07:29;1.30;;;1.10;;
13568;SDS011;6856;51.460;7.158;2024-02-26T03:10:03;2.50;;;1.20;;
13568;SDS011;6856;51.460;7.158;2024-02-26T03:12:38;1.70;;;1.27;;
13568;SDS011;6856;51.460;7.158;2024-02-26T03:15:12;0.90;;;0.90;;
13568;SDS011;6856;51.460;7.158;2024-02-26T03:17:46;1.30;;;1.20;;
13568;SDS011;6856;51.460;7.158;2024-02-26T03:20:21;1.23;;;1.00;;
13568;SDS011;6856;51.460;7.158;2024-02-26T03:22:56;2.37;;;1.40;;
13568;SDS011;6856;51.460;7.158;2024-02-26T03:25:29;1.30;;;1.20;;
13568;SDS011;6856;51.460;7.158;2024-02-26T03:28:03;1.83;;;1.00;;
13568;SDS011;6856;51.460;7.158;2024-02-26T03:30:38;1.77;;;1.10;;
13568;SDS011;6856;51.460;7.158;2024-02-26T03:33:13;1.60;;;1.00;;
13568;SDS011;6856;51.460;7.158;2024-02-26T03:35:47;0.90;;;0.90;;
13568;SDS011;6856;51.460;7.158;2024-02-26T03:38:23;0.93;;;0.90;;
13568;SDS011;6856;51.460;7.158;2024-02-26T03:40:56;2.30;;;1.30;;
13568;SDS011;6856;51.460;7.158;2024-02-26T03:43:32;1.40;;;1.20;;
13568;SDS011;6856;51.460;7.158;2024-02-26T03:46:06;1.37;;;1.20;;
13568;SDS011;6856;51.460;7.158;2024-02-26T03:48:43;1.73;;;1.17;;
13568;SDS011;6856;51.460;7.158;2024-02-26T03:51:17;1.20;;;1.10;;
13568;SDS011;6856;51.460;7.158;2024-02-26T03:53:52;1.17;;;1.07;;
13568;SDS011;6856;51.460;7.158;2024-02-26T03:56:26;1.27;;;1.10;;
13568;SDS011;6856;51.460;7.158;2024-02-26T03:59:00;1.43;;;1.20;;
13568;SDS011;6856;51.460;7.158;2024-02-26T04:01:34;1.50;;;1.30;;
13568;SDS011;6856;51.460;7.158;2024-02-26T04:04:08;1.73;;;1.37;;
13568;SDS011;6856;51.460;7.158;2024-02-26T04:06:44;1.43;;;1.30;;
13568;SDS011;6856;51.460;7.158;2024-02-26T04:09:20;1.47;;;1.37;;
13568;SDS011;6856;51.460;7.158;2024-02-26T04:11:53;1.67;;;1.20;;
13568;SDS011;6856;51.460;7.158;2024-02-26T04:14:28;1.40;;;1.23;;
13568;SDS011;6856;51.460;7.158;2024-02-26T04:17:01;1.63;;;1.20;;
13568;SDS011;6856;51.460;7.158;2024-02-26T04:19:36;1.90;;;1.20;;
13568;SDS011;6856;51.460;7.158;2024-02-26T04:22:10;1.83;;;1.20;;
13568;SDS011;6856;51.460;7.158;2024-02-26T04:24:45;1.40;;;1.30;;
13568;SDS011;6856;51.460;7.158;2024-02-26T04:27:19;1.77;;;1.30;;
13568;SDS011;6856;51.460;7.158;2024-02-26T04:29:56;1.43;;;1.17;;
13568;SDS011;6856;51.460;7.158;2024-02-26T04:32:29;1.97;;;1.33;;
13568;SDS011;6856;51.460;7.158;2024-02-26T04:35:06;1.37;;;1.17;;
13568;SDS011;6856;51.460;7.158;2024-02-26T04:37:40;1.47;;;1.20;;
13568;SDS011;6856;51.460;7.158;2024-02-26T04:40:15;1.20;;;1.10;;
13568;SDS011;6856;51.460;7.158;2024-02-26T04:42:52;1.63;;;1.30;;
13568;SDS011;6856;51.460;7.158;2024-02-26T04:45:26;1.50;;;1.10;;
13568;SDS011;6856;51.460;7.158;2024-02-26T04:48:00;1.20;;;1.10;;
13568;SDS011;6856;51.460;7.158;2024-02-26T04:50:35;1.20;;;1.10;;
13568;SDS011;6856;51.460;7.158;2024-02-26T04:53:08;1.37;;;1.20;;
13568;SDS011;6856;51.460;7.158;2024-02-26T04:55:43;1.20;;;1.10;;
13568;SDS011;6856;51.460;7.158;2024-02-26T04:58:17;1.77;;;1.30;;
13568;SDS011;6856;51.460;7.158;2024-02-26T05:00:54;1.63;;;1.30;;
13568;SDS011;6856;51.460;7.158;2024-02-26T05:03:28;1.30;;;1.13;;
13568;SDS011;6856;51.460;7.158;2024-02-26T05:06:06;1.13;;;1.03;;
13568;SDS011;6856;51.460;7.158;2024-02-26T05:08:41;2.00;;;1.17;;
13568;SDS011;6856;51.460;7.158;2024-02-26T05:11:17;1.30;;;1.20;;
13568;SDS011;6856;51.460;7.158;2024-02-26T05:13:51;1.50;;;1.10;;
13568;SDS011;6856;51.460;7.158;2024-02-26T05:16:24;1.57;;;1.30;;
13568;SDS011;6856;51.460;7.158;2024-02-26T05:18:59;1.67;;;1.17;;
13568;SDS011;6856;51.460;7.158;2024-02-26T05:21:33;1.40;;;1.10;;
13568;SDS011;6856;51.460;7.158;2024-02-26T05:24:08;1.43;;;1.10;;
13568;SDS011;6856;51.460;7.158;2024-02-26T05:26:43;1.47;;;1.10;;
13568;SDS011;6856;51.460;7.158;2024-02-26T05:29:18;1.43;;;1.00;;
13568;SDS011;6856;51.460;7.158;2024-02-26T05:31:52;1.80;;;1.00;;
13568;SDS011;6856;51.460;7.158;2024-02-26T05:34:27;1.73;;;1.00;;
13568;SDS011;6856;51.460;7.158;2024-02-26T05:37:03;1.13;;;1.00;;
13568;SDS011;6856;51.460;7.158;2024-02-26T05:39:38;0.90;;;0.90;;
13568;SDS011;6856;51.460;7.158;2024-02-26T05:42:13;1.40;;;1.10;;
13568;SDS011;6856;51.460;7.158;2024-02-26T05:44:47;1.60;;;1.07;;
13568;SDS011;6856;51.460;7.158;2024-02-26T05:47:21;1.60;;;1.17;;
13568;SDS011;6856;51.460;7.158;2024-02-26T05:49:55;1.37;;;1.07;;
13568;SDS011;6856;51.460;7.158;2024-02-26T05:52:30;1.90;;;1.30;;
13568;SDS011;6856;51.460;7.158;2024-02-26T05:55:04;1.30;;;1.20;;
13568;SDS011;6856;51.460;7.158;2024-02-26T05:57:40;0.97;;;0.93;;
13568;SDS011;6856;51.460;7.158;2024-02-26T06:00:14;1.20;;;1.10;;
13568;SDS011;6856;51.460;7.158;2024-02-26T06:02:49;1.50;;;1.10;;
13568;SDS011;6856;51.460;7.158;2024-02-26T06:05:22;1.30;;;1.20;;
13568;SDS011;6856;51.460;7.158;2024-02-26T06:07:56;1.97;;;1.40;;
13568;SDS011;6856;51.460;7.158;2024-02-26T06:10:30;3.63;;;1.37;;
13568;SDS011;6856;51.460;7.158;2024-02-26T06:13:06;1.27;;;1.17;;
13568;SDS011;6856;51.460;7.158;2024-02-26T06:15:40;2.00;;;1.20;;
13568;SDS011;6856;51.460;7.158;2024-02-26T06:18:14;2.00;;;1.30;;
13568;SDS011;6856;51.460;7.158;2024-02-26T06:20:49;1.80;;;1.40;;
13568;SDS011;6856;51.460;7.158;2024-02-26T06:23:24;1.93;;;1.30;;
13568;SDS011;6856;51.460;7.158;2024-02-26T06:25:58;1.87;;;1.50;;
13568;SDS011;6856;51.460;7.158;2024-02-26T06:28:33;1.70;;;1.37;;
13568;SDS011;6856;51.460;7.158;2024-02-26T06:31:07;1.43;;;1.17;;
13568;SDS011;6856;51.460;7.158;2024-02-26T06:33:41;1.30;;;1.20;;
13568;SDS011;6856;51.460;7.158;2024-02-26T06:36:16;1.77;;;1.30;;
13568;SDS011;6856;51.460;7.158;2024-02-26T06:38:51;2.67;;;1.40;;
13568;SDS011;6856;51.460;7.158;2024-02-26T06:41:25;2.40;;;1.33;;
13568;SDS011;6856;51.460;7.158;2024-02-26T06:44:03;2.30;;;1.50;;
13568;SDS011;6856;51.460;7.158;2024-02-26T06:46:36;1.93;;;1.40;;
13568;SDS011;6856;51.460;7.158;2024-02-26T06:49:11;1.60;;;1.37;;
13568;SDS011;6856;51.460;7.158;2024-02-26T06:51:45;1.93;;;1.60;;
13568;SDS011;6856;51.460;7.158;2024-02-26T06:54:19;1.97;;;1.40;;
13568;SDS011;6856;51.460;7.158;2024-02-26T06:56:54;2.13;;;1.43;;
13568;SDS011;6856;51.460;7.158;2024-02-26T06:59:30;2.60;;;1.70;;
13568;SDS011;6856;51.460;7.158;2024-02-26T07:02:04;15.20;;;13.57;;
13568;SDS011;6856;51.460;7.158;2024-02-26T07:04:38;7.37;;;5.93;;
13568;SDS011;6856;51.460;7.158;2024-02-26T07:07:12;4.83;;;3.30;;
13568;SDS011;6856;51.460;7.158;2024-02-26T07:09:49;3.47;;;2.00;;
13568;SDS011;6856;51.460;7.158;2024-02-26T07:12:26;3.27;;;1.80;;
13568;SDS011;6856;51.460;7.158;2024-02-26T07:15:01;1.67;;;1.20;;
13568;SDS011;6856;51.460;7.158;2024-02-26T07:17:35;2.27;;;1.20;;
13568;SDS011;6856;51.460;7.158;2024-02-26T07:20:15;2.10;;;1.60;;
13568;SDS011;6856;51.460;7.158;2024-02-26T07:22:50;1.87;;;1.50;;
13568;SDS011;6856;51.460;7.158;2024-02-26T07:25:24;2.40;;;1.70;;
13568;SDS011;6856;51.460;7.158;2024-02-26T07:27:58;1.57;;;1.47;;
13568;SDS011;6856;51.460;7.158;2024-02-26T07:30:33;2.13;;;1.73;;
13568;SDS011;6856;51.460;7.158;2024-02-26T07:33:07;2.87;;;1.50;;
13568;SDS011;6856;51.460;7.158;2024-02-26T07:35:41;1.97;;;1.67;;
13568;SDS011;6856;51.460;7.158;2024-02-26T07:38:15;2.93;;;1.80;;
13568;SDS011;6856;51.460;7.158;2024-02-26T07:41:02;1.93;;;1.53;;
13568;SDS011;6856;51.460;7.158;2024-02-26T07:43:38;3.40;;;2.30;;
13568;SDS011;6856;51.460;7.158;2024-02-26T07:46:16;1.70;;;1.60;;
13568;SDS011;6856;51.460;7.158;2024-02-26T07:48:50;1.43;;;1.33;;
13568;SDS011;6856;51.460;7.158;2024-02-26T07:51:24;2.27;;;1.43;;
13568;SDS011;6856;51.460;7.158;2024-02-26T07:53:58;1.83;;;1.47;;
13568;SDS011;6856;51.460;7.158;2024-02-26T07:56:32;2.27;;;1.50;;
13568;SDS011;6856;51.460;7.158;2024-02-26T07:59:06;2.50;;;1.70;;
13568;SDS011;6856;51.460;7.158;2024-02-26T08:01:44;2.87;;;1.40;;
13568;SDS011;6856;51.460;7.158;2024-02-26T08:04:29;1.77;;;1.50;;
13568;SDS011;6856;51.460;7.158;2024-02-26T08:07:02;2.27;;;1.63;;
13568;SDS011;6856;51.460;7.158;2024-02-26T08:09:37;3.17;;;1.37;;
13568;SDS011;6856;51.460;7.158;2024-02-26T08:12:12;2.73;;;1.67;;
13568;SDS011;6856;51.460;7.158;2024-02-26T08:14:46;2.30;;;1.80;;
13568;SDS011;6856;51.460;7.158;2024-02-26T08:17:23;1.93;;;1.60;;
13568;SDS011;6856;51.460;7.158;2024-02-26T08:19:58;2.43;;;1.60;;
13568;SDS011;6856;51.460;7.158;2024-02-26T08:22:32;2.23;;;1.70;;
13568;SDS011;6856;51.460;7.158;2024-02-26T08:25:07;2.43;;;1.70;;
13568;SDS011;6856;51.460;7.158;2024-02-26T08:27:43;2.60;;;1.87;;
13568;SDS011;6856;51.460;7.158;2024-02-26T08:30:16;2.60;;;1.70;;
13568;SDS011;6856;51.460;7.158;2024-02-26T08:32:53;3.03;;;1.67;;
13568;SDS011;6856;51.460;7.158;2024-02-26T08:35:28;4.70;;;1.87;;
13568;SDS011;6856;51.460;7.158;2024-02-26T08:38:02;3.10;;;1.83;;
13568;SDS011;6856;51.460;7.158;2024-02-26T08:40:36;4.60;;;1.80;;
13568;SDS011;6856;51.460;7.158;2024-02-26T08:43:10;3.10;;;2.10;;
13568;SDS011;6856;51.460;7.158;2024-02-26T08:45:46;3.87;;;2.03;;
13568;SDS011;6856;51.460;7.158;2024-02-26T08:48:22;2.17;;;1.73;;
13568;SDS011;6856;51.460;7.158;2024-02-26T08:50:57;3.87;;;1.90;;
13568;SDS011;6856;51.460;7.158;2024-02-26T08:53:32;3.97;;;1.80;;
13568;SDS011;6856;51.460;7.158;2024-02-26T08:56:14;2.50;;;1.80;;
13568;SDS011;6856;51.460;7.158;2024-02-26T08:58:50;2.40;;;1.70;;
13568;SDS011;6856;51.460;7.158;2024-02-26T09:01:25;3.00;;;1.80;;
13568;SDS011;6856;51.460;7.158;2024-02-26T09:04:00;2.40;;;1.90;;
13568;SDS011;6856;51.460;7.158;2024-02-26T09:06:36;2.57;;;1.70;;
13568;SDS011;6856;51.460;7.158;2024-02-26T09:09:12;2.20;;;2.00;;
13568;SDS011;6856;51.460;7.158;2024-02-26T09:11:45;2.50;;;1.90;;
13568;SDS011;6856;51.460;7.158;2024-02-26T09:14:20;2.43;;;1.97;;
13568;SDS011;6856;51.460;7.158;2024-02-26T09:17:02;3.20;;;2.07;;
13568;SDS011;6856;51.460;7.158;2024-02-26T09:19:38;3.87;;;2.37;;
13568;SDS011;6856;51.460;7.158;2024-02-26T09:22:14;3.47;;;2.20;;
13568;SDS011;6856;51.460;7.158;2024-02-26T09:24:49;2.17;;;1.80;;
13568;SDS011;6856;51.460;7.158;2024-02-26T09:27:25;2.57;;;1.93;;
13568;SDS011;6856;51.460;7.158;2024-02-26T09:30:00;3.33;;;2.20;;
13568;SDS011;6856;51.460;7.158;2024-02-26T09:32:34;3.03;;;2.20;;
13568;SDS011;6856;51.460;7.158;2024-02-26T09:35:10;2.67;;;1.97;;
13568;SDS011;6856;51.460;7.158;2024-02-26T09:37:45;2.43;;;1.97;;
13568;SDS011;6856;51.460;7.158;2024-02-26T09:40:22;2.13;;;1.70;;
13568;SDS011;6856;51.460;7.158;2024-02-26T09:42:59;2.47;;;2.10;;
13568;SDS011;6856;51.460;7.158;2024-02-26T09:45:34;3.67;;;2.20;;
13568;SDS011;6856;51.460;7.158;2024-02-26T09:48:09;5.27;;;3.70;;
13568;SDS011;6856;51.460;7.158;2024-02-26T09:50:48;22.37;;;19.23;;
13568;SDS011;6856;51.460;7.158;2024-02-26T09:53:22;9.50;;;8.23;;
13568;SDS011;6856;51.460;7.158;2024-02-26T09:55:57;4.77;;;3.83;;
13568;SDS011;6856;51.460;7.158;2024-02-26T09:58:32;7.47;;;2.90;;
13568;SDS011;6856;51.460;7.158;2024-02-26T10:01:09;3.00;;;2.13;;
13568;SDS011;6856;51.460;7.158;2024-02-26T10:03:53;2.90;;;2.10;;
13568;SDS011;6856;51.460;7.158;2024-02-26T10:06:33;4.03;;;2.47;;
13568;SDS011;6856;51.460;7.158;2024-02-26T10:09:09;3.07;;;2.40;;
13568;SDS011;6856;51.460;7.158;2024-02-26T10:11:44;8.17;;;6.03;;
13568;SDS011;6856;51.460;7.158;2024-02-26T10:14:22;38.30;;;32.87;;
13568;SDS011;6856;51.460;7.158;2024-02-26T10:16:58;26.93;;;21.63;;
13568;SDS011;6856;51.460;7.158;2024-02-26T10:19:34;29.87;;;25.30;;
13568;SDS011;6856;51.460;7.158;2024-02-26T10:22:11;11.47;;;9.30;;
13568;SDS011;6856;51.460;7.158;2024-02-26T10:24:46;7.00;;;5.60;;
13568;SDS011;6856;51.460;7.158;2024-02-26T10:27:20;5.77;;;4.03;;
13568;SDS011;6856;51.460;7.158;2024-02-26T10:29:56;3.83;;;2.57;;
13568;SDS011;6856;51.460;7.158;2024-02-26T10:32:30;2.80;;;2.37;;
13568;SDS011;6856;51.460;7.158;2024-02-26T10:35:08;3.23;;;2.27;;
13568;SDS011;6856;51.460;7.158;2024-02-26T10:37:44;3.50;;;2.50;;
13568;SDS011;6856;51.460;7.158;2024-02-26T10:40:19;3.63;;;2.40;;
13568;SDS011;6856;51.460;7.158;2024-02-26T10:42:54;3.67;;;2.53;;
13568;SDS011;6856;51.460;7.158;2024-02-26T10:45:27;2.50;;;2.00;;
13568;SDS011;6856;51.460;7.158;2024-02-26T10:48:09;2.80;;;2.07;;
13568;SDS011;6856;51.460;7.158;2024-02-26T10:50:46;3.83;;;2.57;;
13568;SDS011;6856;51.460;7.158;2024-02-26T10:53:23;3.87;;;2.63;;
13568;SDS011;6856;51.460;7.158;2024-02-26T10:56:03;3.73;;;2.73;;
13568;SDS011;6856;51.460;7.158;2024-02-26T10:58:39;3.30;;;2.50;;
13568;SDS011;6856;51.460;7.158;2024-02-26T11:01:14;3.63;;;2.60;;
13568;SDS011;6856;51.460;7.158;2024-02-26T11:03:51;3.97;;;2.60;;
13568;SDS011;6856;51.460;7.158;2024-02-26T11:06:26;17.07;;;12.77;;
13568;SDS011;6856;51.460;7.158;2024-02-26T11:09:03;12.47;;;7.17;;
13568;SDS011;6856;51.460;7.158;2024-02-26T11:11:39;7.87;;;5.80;;
13568;SDS011;6856;51.460;7.158;2024-02-26T11:14:14;27.17;;;24.23;;
13568;SDS011;6856;51.460;7.158;2024-02-26T11:16:49;18.17;;;15.67;;
13568;SDS011;6856;51.460;7.158;2024-02-26T11:19:24;11.57;;;9.97;;
13568;SDS011;6856;51.460;7.158;2024-02-26T11:22:01;7.60;;;5.50;;
13568;SDS011;6856;51.460;7.158;2024-02-26T11:24:53;6.70;;;4.33;;
13568;SDS011;6856;51.460;7.158;2024-02-26T11:27:29;5.80;;;3.83;;
13568;SDS011;6856;51.460;7.158;2024-02-26T11:30:08;4.80;;;3.57;;
13568;SDS011;6856;51.460;7.158;2024-02-26T11:32:44;4.43;;;3.37;;
13568;SDS011;6856;51.460;7.158;2024-02-26T11:35:19;4.00;;;3.10;;
13568;SDS011;6856;51.460;7.158;2024-02-26T11:37:58;4.73;;;3.13;;
13568;SDS011;6856;51.460;7.158;2024-02-26T11:40:37;3.63;;;2.80;;
13568;SDS011;6856;51.460;7.158;2024-02-26T11:43:12;3.57;;;2.40;;
13568;SDS011;6856;51.460;7.158;2024-02-26T11:45:51;3.63;;;2.87;;
13568;SDS011;6856;51.460;7.158;2024-02-26T11:48:31;4.47;;;2.70;;
13568;SDS011;6856;51.460;7.158;2024-02-26T11:51:07;3.97;;;2.80;;
13568;SDS011;6856;51.460;7.158;2024-02-26T11:53:45;6.07;;;2.40;;
13568;SDS011;6856;51.460;7.158;2024-02-26T11:56:24;3.77;;;2.80;;
13568;SDS011;6856;51.460;7.158;2024-02-26T11:59:03;3.00;;;2.70;;
13568;SDS011;6856;51.460;7.158;2024-02-26T12:01:43;3.43;;;2.90;;
13568;SDS011;6856;51.460;7.158;2024-02-26T12:04:21;3.73;;;3.00;;
13568;SDS011;6856;51.460;7.158;2024-02-26T12:06:59;4.23;;;2.93;;
13568;SDS011;6856;51.460;7.158;2024-02-26T12:09:38;3.97;;;3.17;;
13568;SDS011;6856;51.460;7.158;2024-02-26T12:12:17;4.27;;;2.97;;
13568;SDS011;6856;51.460;7.158;2024-02-26T12:14:53;4.30;;;2.97;;
13568;SDS011;6856;51.460;7.158;2024-02-26T12:17:31;5.27;;;3.80;;
13568;SDS011;6856;51.460;7.158;2024-02-26T12:20:08;4.07;;;3.03;;
13568;SDS011;6856;51.460;7.158;2024-02-26T12:22:44;4.47;;;3.00;;
13568;SDS011;6856;51.460;7.158;2024-02-26T12:25:22;4.37;;;3.57;;
13568;SDS011;6856;51.460;7.158;2024-02-26T12:28:01;5.07;;;4.20;;
13568;SDS011;6856;51.460;7.158;2024-02-26T12:30:35;6.50;;;3.80;;
13568;SDS011;6856;51.460;7.158;2024-02-26T12:33:09;4.20;;;3.40;;
13568;SDS011;6856;51.460;7.158;2024-02-26T12:35:44;5.60;;;4.30;;
13568;SDS011;6856;51.460;7.158;2024-02-26T12:38:20;5.70;;;3.90;;
13568;SDS011;6856;51.460;7.158;2024-02-26T12:40:55;5.27;;;3.77;;
13568;SDS011;6856;51.460;7.158;2024-02-26T12:43:30;4.47;;;3.63;;
13568;SDS011;6856;51.460;7.158;2024-02-26T12:46:05;4.63;;;3.83;;
13568;SDS011;6856;51.460;7.158;2024-02-26T12:48:39;4.77;;;3.50;;
13568;SDS011;6856;51.460;7.158;2024-02-26T12:51:16;5.37;;;4.00;;
13568;SDS011;6856;51.460;7.158;2024-02-26T12:53:51;4.40;;;3.37;;
13568;SDS011;6856;51.460;7.158;2024-02-26T12:56:27;5.03;;;3.90;;
13568;SDS011;6856;51.460;7.158;2024-02-26T12:59:05;4.37;;;3.40;;
13568;SDS011;6856;51.460;7.158;2024-02-26T13:01:40;4.10;;;2.93;;
13568;SDS011;6856;51.460;7.158;2024-02-26T13:04:14;4.17;;;3.13;;
13568;SDS011;6856;51.460;7.158;2024-02-26T13:06:49;4.80;;;2.90;;
13568;SDS011;6856;51.460;7.158;2024-02-26T13:09:23;4.23;;;3.10;;
13568;SDS011;6856;51.460;7.158;2024-02-26T13:11:59;3.70;;;2.73;;
13568;SDS011;6856;51.460;7.158;2024-02-26T13:14:35;4.70;;;3.60;;
13568;SDS011;6856;51.460;7.158;2024-02-26T13:17:09;4.33;;;3.10;;
13568;SDS011;6856;51.460;7.158;2024-02-26T13:19:49;6.20;;;3.27;;
13568;SDS011;6856;51.460;7.158;2024-02-26T13:22:23;4.17;;;3.00;;
13568;SDS011;6856;51.460;7.158;2024-02-26T13:25:01;3.40;;;2.80;;
13568;SDS011;6856;51.460;7.158;2024-02-26T13:27:36;4.00;;;3.30;;
13568;SDS011;6856;51.460;7.158;2024-02-26T13:30:13;4.40;;;2.97;;
13568;SDS011;6856;51.460;7.158;2024-02-26T13:32:47;4.47;;;3.00;;
13568;SDS011;6856;51.460;7.158;2024-02-26T13:35:21;5.90;;;3.40;;
13568;SDS011;6856;51.460;7.158;2024-02-26T13:37:58;3.93;;;3.17;;
13568;SDS011;6856;51.460;7.158;2024-02-26T13:40:42;4.17;;;3.23;;
13568;SDS011;6856;51.460;7.158;2024-02-26T13:43:19;3.90;;;2.77;;
13568;SDS011;6856;51.460;7.158;2024-02-26T13:45:54;4.10;;;2.70;;
13568;SDS011;6856;51.460;7.158;2024-02-26T13:48:28;3.70;;;2.60;;
13568;SDS011;6856;51.460;7.158;2024-02-26T13:51:04;3.50;;;2.67;;
13568;SDS011;6856;51.460;7.158;2024-02-26T13:53:38;3.50;;;2.80;;
13568;SDS011;6856;51.460;7.158;2024-02-26T13:56:14;3.30;;;2.50;;
13568;SDS011;6856;51.460;7.158;2024-02-26T13:58:48;4.00;;;2.60;;
13568;SDS011;6856;51.460;7.158;2024-02-26T14:01:24;3.23;;;2.37;;
13568;SDS011;6856;51.460;7.158;2024-02-26T14:03:58;3.30;;;2.53;;
13568;SDS011;6856;51.460;7.158;2024-02-26T14:06:34;3.20;;;2.70;;
13568;SDS011;6856;51.460;7.158;2024-02-26T14:09:08;3.87;;;2.83;;
13568;SDS011;6856;51.460;7.158;2024-02-26T14:11:42;3.70;;;2.73;;
13568;SDS011;6856;51.460;7.158;2024-02-26T14:14:16;3.57;;;2.87;;
13568;SDS011;6856;51.460;7.158;2024-02-26T14:16:52;3.40;;;2.47;;
13568;SDS011;6856;51.460;7.158;2024-02-26T14:19:26;3.73;;;2.70;;
13568;SDS011;6856;51.460;7.158;2024-02-26T14:22:00;3.40;;;2.60;;
13568;SDS011;6856;51.460;7.158;2024-02-26T14:24:34;3.37;;;2.70;;
13568;SDS011;6856;51.460;7.158;2024-02-26T14:27:08;4.20;;;2.80;;
13568;SDS011;6856;51.460;7.158;2024-02-26T14:29:47;3.57;;;2.90;;
13568;SDS011;6856;51.460;7.158;2024-02-26T14:32:23;3.23;;;2.53;;
13568;SDS011;6856;51.460;7.158;2024-02-26T14:34:57;3.50;;;2.50;;
13568;SDS011;6856;51.460;7.158;2024-02-26T14:37:31;3.77;;;2.70;;
13568;SDS011;6856;51.460;7.158;2024-02-26T14:40:06;3.87;;;2.37;;
13568;SDS011;6856;51.460;7.158;2024-02-26T14:42:41;3.60;;;2.40;;
13568;SDS011;6856;51.460;7.158;2024-02-26T14:45:16;3.73;;;2.73;;
13568;SDS011;6856;51.460;7.158;2024-02-26T14:47:54;4.03;;;3.00;;
13568;SDS011;6856;51.460;7.158;2024-02-26T14:50:27;2.50;;;1.93;;
13568;SDS011;6856;51.460;7.158;2024-02-26T14:53:03;4.03;;;2.87;;
13568;SDS011;6856;51.460;7.158;2024-02-26T14:55:37;3.00;;;2.40;;
13568;SDS011;6856;51.460;7.158;2024-02-26T14:58:12;3.63;;;2.40;;
13568;SDS011;6856;51.460;7.158;2024-02-26T15:00:46;5.27;;;3.27;;
13568;SDS011;6856;51.460;7.158;2024-02-26T15:03:27;3.60;;;2.47;;
13568;SDS011;6856;51.460;7.158;2024-02-26T15:06:02;2.80;;;2.20;;
13568;SDS011;6856;51.460;7.158;2024-02-26T15:08:37;3.07;;;2.23;;
13568;SDS011;6856;51.460;7.158;2024-02-26T15:11:10;3.33;;;2.03;;
13568;SDS011;6856;51.460;7.158;2024-02-26T15:13:44;4.13;;;2.43;;
13568;SDS011;6856;51.460;7.158;2024-02-26T15:16:19;3.57;;;2.30;;
13568;SDS011;6856;51.460;7.158;2024-02-26T15:18:55;2.83;;;2.17;;
13568;SDS011;6856;51.460;7.158;2024-02-26T15:21:29;2.63;;;2.10;;
13568;SDS011;6856;51.460;7.158;2024-02-26T15:24:04;3.73;;;2.43;;
13568;SDS011;6856;51.460;7.158;2024-02-26T15:26:40;2.33;;;1.90;;
13568;SDS011;6856;51.460;7.158;2024-02-26T15:29:13;2.97;;;2.13;;
13568;SDS011;6856;51.460;7.158;2024-02-26T15:31:47;1.97;;;1.70;;
13568;SDS011;6856;51.460;7.158;2024-02-26T15:34:23;2.70;;;2.00;;
13568;SDS011;6856;51.460;7.158;2024-02-26T15:36:56;2.93;;;1.97;;
13568;SDS011;6856;51.460;7.158;2024-02-26T15:39:31;1.80;;;1.57;;
13568;SDS011;6856;51.460;7.158;2024-02-26T15:42:05;2.87;;;2.10;;
13568;SDS011;6856;51.460;7.158;2024-02-26T15:44:42;3.13;;;1.63;;
13568;SDS011;6856;51.460;7.158;2024-02-26T15:47:17;2.87;;;1.87;;
13568;SDS011;6856;51.460;7.158;2024-02-26T15:49:52;2.20;;;1.93;;